Time,TemperatureF,DewpointF,PressureIn,WindDirection,WindDirectionDegrees,WindSpeedMPH,WindSpeedGustMPH,Humidity,HourlyPrecipIn,Conditions,Clouds,dailyrainin,SoftwareType,DateUTC
2013-07-25 00:02:00,61.3,55.1,30.01,SE,135,4.7,4.7,80,0.00,RA,OVC,0.00,WeatherDisplay:10.37,2013-07-25 05:02:00,
2013-07-25 00:07:00,61.3,55.1,30.01,SE,135,4.9,5.8,80,0.00,RA,OVC,0.00,WeatherDisplay:10.37,2013-07-25 05:07:00,
2013-07-25 00:12:00,61.2,54.9,30.01,SE,135,5.2,5.2,80,0.00,,OVC,0.00,WeatherDisplay:10.37,2013-07-25 05:12:00,
2013-07-25 00:17:00,61.2,54.9,30.01,SE,135,4.7,4.7,80,0.00,,OVC,0.00,WeatherDisplay:10.37,2013-07-25 05:17:00,
2013-07-25 00:22:00,61.0,54.8,30.02,SE,135,4.3,4.6,80,0.00,,OVC,0.00,WeatherDisplay:10.37,2013-07-25 05:22:00,
2013-07-25 00:27:00,60.8,54.6,30.02,SE,135,4.5,4.6,80,0.00,,OVC,0.00,WeatherDisplay:10.37,2013-07-25 05:27:00,
2013-07-25 00:32:00,60.8,54.6,30.02,SE,135,4.3,4.6,80,0.00,,OVC,0.00,WeatherDisplay:10.37,2013-07-25 05:32:00,
2013-07-25 00:37:00,60.8,54.6,30.02,SE,135,4.0,4.6,80,0.00,,OVC,0.00,WeatherDisplay:10.37,2013-07-25 05:37:00,
2013-07-25 00:42:00,60.4,54.2,30.02,SE,135,4.7,4.7,80,0.00,,OVC,0.00,WeatherDisplay:10.37,2013-07-25 05:42:00,
2013-07-25 00:47:00,60.4,54.6,30.02,SE,135,4.3,4.6,81,0.00,,OVC,0.00,WeatherDisplay:10.37,2013-07-25 05:47:00,
2013-07-25 00:52:00,60.3,54.1,30.01,SE,135,4.7,4.7,80,0.00,,OVC,0.00,WeatherDisplay:10.37,2013-07-25 05:52:00,
2013-07-25 00:57:00,60.3,54.1,30.01,SE,135,5.4,5.8,80,0.00,,OVC,0.00,WeatherDisplay:10.37,2013-07-25 05:57:00,
2013-07-25 01:02:00,60.1,54.2,30.01,SSE,158,5.2,5.8,81,0.00,,OVC,0.00,WeatherDisplay:10.37,2013-07-25 06:02:00,
2013-07-25 01:07:00,59.9,53.7,30.01,SSE,158,4.7,5.8,80,0.00,,OVC,0.00,WeatherDisplay:10.37,2013-07-25 06:07:00,
2013-07-25 01:12:00,60.1,53.9,30.01,SSE,158,4.5,4.6,80,0.00,,OVC,0.00,WeatherDisplay:10.37,2013-07-25 06:12:00,
2013-07-25 01:17:00,60.1,54.2,30.01,SSE,158,4.7,4.7,81,0.00,,OVC,0.00,WeatherDisplay:10.37,2013-07-25 06:17:00,
2013-07-25 01:22:00,59.9,54.1,30.01,SSE,158,5.2,5.2,81,0.00,,OVC,0.00,WeatherDisplay:10.37,2013-07-25 06:22:00,
2013-07-25 01:27:00,59.9,54.1,30.01,SSE,158,5.2,5.2,81,0.00,,OVC,0.00,WeatherDisplay:10.37,2013-07-25 06:27:00,
2013-07-25 01:32:00,59.9,53.7,30.01,SSE,158,4.7,4.7,80,0.00,,OVC,0.00,WeatherDisplay:10.37,2013-07-25 06:32:00,
2013-07-25 01:37:00,59.7,53.5,30.01,SSE,158,4.5,4.6,80,0.00,,OVC,0.00,WeatherDisplay:10.37,2013-07-25 06:37:00,
2013-07-25 01:42:00,59.5,53.4,30.01,SSE,158,5.2,5.2,80,0.00,,OVC,0.00,WeatherDisplay:10.37,2013-07-25 06:42:00,
2013-07-25 01:47:00,59.5,53.4,30.00,SSE,158,4.7,4.7,80,0.00,,OVC,0.00,WeatherDisplay:10.37,2013-07-25 06:47:00,
2013-07-25 01:52:00,59.5,53.4,30.00,SSE,158,4.3,4.6,80,0.00,,OVC,0.00,WeatherDisplay:10.37,2013-07-25 06:52:00,
2013-07-25 01:57:00,59.5,53.4,30.00,SSE,158,4.3,4.6,80,0.00,,OVC,0.00,WeatherDisplay:10.37,2013-07-25 06:57:00,
2013-07-25 02:02:00,59.7,53.5,30.01,SSE,158,4.3,4.6,80,0.00,,OVC,0.00,WeatherDisplay:10.37,2013-07-25 07:02:00,
2013-07-25 02:07:00,59.5,53.4,30.00,SSE,158,4.3,4.6,80,0.00,,OVC,0.00,WeatherDisplay:10.37,2013-07-25 07:07:00,
2013-07-25 02:12:00,59.4,53.2,30.00,SSE,158,4.7,4.7,80,0.00,,OVC,0.00,WeatherDisplay:10.37,2013-07-25 07:12:00,
2013-07-25 02:17:00,59.4,53.2,30.00,SSE,158,4.7,4.7,80,0.00,,OVC,0.00,WeatherDisplay:10.37,2013-07-25 07:17:00,
2013-07-25 02:22:00,59.4,53.2,30.01,South,180,1.4,4.6,80,0.00,,OVC,0.00,WeatherDisplay:10.37,2013-07-25 07:22:00,
2013-07-25 02:27:00,59.4,53.2,30.01,South,180,1.2,2.3,80,0.00,,OVC,0.00,WeatherDisplay:10.37,2013-07-25 07:27:00,
2013-07-25 02:33:00,59.4,53.2,30.01,SSW,202,0.9,2.3,80,0.00,,OVC,0.00,WeatherDisplay:10.37,2013-07-25 07:33:00,
2013-07-25 02:38:00,59.5,53.4,30.01,South,180,2.6,2.6,80,0.00,,OVC,0.00,WeatherDisplay:10.37,2013-07-25 07:38:00,
2013-07-25 02:43:00,59.5,53.4,30.02,South,180,2.0,2.0,80,0.00,,OVC,0.00,WeatherDisplay:10.37,2013-07-25 07:43:00,
2013-07-25 02:48:00,59.5,53.4,30.01,SSE,158,1.2,1.2,80,0.00,,OVC,0.00,WeatherDisplay:10.37,2013-07-25 07:48:00,
2013-07-25 02:53:00,59.4,53.2,30.01,SSE,158,1.4,1.4,80,0.00,,OVC,0.00,WeatherDisplay:10.37,2013-07-25 07:53:00,
2013-07-25 02:58:00,59.4,53.2,30.01,SW,225,0.9,1.2,80,0.00,,OVC,0.00,WeatherDisplay:10.37,2013-07-25 07:58:00,
2013-07-25 03:03:00,59.2,53.0,30.02,South,180,1.2,1.2,80,0.00,,OVC,0.00,WeatherDisplay:10.37,2013-07-25 08:03:00,
2013-07-25 03:08:00,59.2,53.0,30.02,South,180,4.0,4.0,80,0.00,,OVC,0.00,WeatherDisplay:10.37,2013-07-25 08:08:00,
2013-07-25 03:13:00,59.2,53.0,30.02,SSW,202,3.1,3.1,80,0.00,,OVC,0.00,WeatherDisplay:10.37,2013-07-25 08:13:00,
2013-07-25 03:18:00,59.0,52.8,30.01,SSE,158,1.8,1.8,80,0.00,,OVC,0.00,WeatherDisplay:10.37,2013-07-25 08:18:00,
2013-07-25 03:23:00,58.8,52.7,30.01,SSE,158,3.3,3.5,80,0.00,,OVC,0.00,WeatherDisplay:10.37,2013-07-25 08:23:00,
2013-07-25 03:28:00,58.6,52.1,30.00,SSE,158,4.3,4.6,79,0.00,,OVC,0.00,WeatherDisplay:10.37,2013-07-25 08:28:00,
2013-07-25 03:33:00,58.5,52.0,30.01,SSE,158,4.7,4.7,79,0.00,,OVC,0.00,WeatherDisplay:10.37,2013-07-25 08:33:00,
2013-07-25 03:38:00,58.3,51.8,30.01,SE,135,3.1,3.5,79,0.00,,OVC,0.00,WeatherDisplay:10.37,2013-07-25 08:38:00,
2013-07-25 03:43:00,58.3,51.8,30.01,South,180,0.5,2.3,79,0.00,,OVC,0.00,WeatherDisplay:10.37,2013-07-25 08:43:00,
2013-07-25 03:48:00,58.1,51.6,30.01,SSE,158,4.0,4.6,79,0.00,,OVC,0.00,WeatherDisplay:10.37,2013-07-25 08:48:00,
2013-07-25 03:53:00,57.9,51.1,30.00,SSE,158,4.7,4.7,78,0.00,,OVC,0.00,WeatherDisplay:10.37,2013-07-25 08:53:00,
2013-07-25 03:58:00,57.9,51.1,30.01,SE,135,4.9,4.9,78,0.00,,OVC,0.00,WeatherDisplay:10.37,2013-07-25 08:58:00,
2013-07-25 04:03:00,57.7,50.9,30.01,SSE,158,4.7,4.7,78,0.00,,OVC,0.00,WeatherDisplay:10.37,2013-07-25 09:03:00,
2013-07-25 04:08:00,57.7,50.6,30.01,SSE,158,5.4,5.8,77,0.00,,OVC,0.00,WeatherDisplay:10.37,2013-07-25 09:08:00,
2013-07-25 04:13:00,57.6,50.4,30.01,SSE,158,5.4,5.8,77,0.00,,OVC,0.00,WeatherDisplay:10.37,2013-07-25 09:13:00,
2013-07-25 04:18:00,57.4,50.2,30.01,South,180,3.1,5.8,77,0.00,,OVC,0.00,WeatherDisplay:10.37,2013-07-25 09:18:00,
2013-07-25 04:23:00,57.6,50.0,30.01,South,180,2.0,2.3,76,0.00,,OVC,0.00,WeatherDisplay:10.37,2013-07-25 09:23:00,
2013-07-25 04:28:00,57.4,50.2,30.01,South,180,1.8,3.5,77,0.00,,OVC,0.00,WeatherDisplay:10.37,2013-07-25 09:28:00,
2013-07-25 04:33:00,57.2,50.1,30.01,SSE,158,4.7,4.7,77,0.00,,OVC,0.00,WeatherDisplay:10.37,2013-07-25 09:33:00,
2013-07-25 04:38:00,57.0,49.5,30.01,SSE,158,5.4,5.8,76,0.00,,OVC,0.00,WeatherDisplay:10.37,2013-07-25 09:38:00,
2013-07-25 04:43:00,57.2,49.7,30.01,SSE,158,3.3,4.6,76,0.00,,OVC,0.00,WeatherDisplay:10.37,2013-07-25 09:43:00,
2013-07-25 04:48:00,57.2,49.7,30.01,SSE,158,5.4,5.8,76,0.00,,OVC,0.00,WeatherDisplay:10.37,2013-07-25 09:48:00,
2013-07-25 04:53:00,57.2,49.7,30.01,South,180,4.7,4.7,76,0.00,,OVC,0.00,WeatherDisplay:10.37,2013-07-25 09:53:00,
2013-07-25 04:58:00,57.2,49.7,30.01,SSE,158,5.2,5.2,76,0.00,,OVC,0.00,WeatherDisplay:10.37,2013-07-25 09:58:00,
2013-07-25 05:03:00,57.0,49.5,30.01,SSE,158,4.9,4.9,76,0.00,,OVC,0.00,WeatherDisplay:10.37,2013-07-25 10:03:00,
2013-07-25 05:08:00,57.2,49.3,30.01,South,180,1.4,4.6,75,0.00,,OVC,0.00,WeatherDisplay:10.37,2013-07-25 10:08:00,
2013-07-25 05:13:00,57.2,49.7,30.01,SSW,202,2.9,4.6,76,0.00,,OVC,0.00,WeatherDisplay:10.37,2013-07-25 10:13:00,
2013-07-25 05:18:00,57.0,49.5,30.01,South,180,3.3,4.6,76,0.00,,OVC,0.00,WeatherDisplay:10.37,2013-07-25 10:18:00,
2013-07-25 05:23:00,56.8,49.0,30.01,South,180,2.4,2.4,75,0.00,,OVC,0.00,WeatherDisplay:10.37,2013-07-25 10:23:00,
2013-07-25 05:28:00,56.8,49.0,30.01,SSE,158,4.0,4.6,75,0.00,,OVC,0.00,WeatherDisplay:10.37,2013-07-25 10:28:00,
2013-07-25 05:33:00,56.7,49.2,30.01,SSE,158,2.4,3.5,76,0.00,,OVC,0.00,WeatherDisplay:10.37,2013-07-25 10:33:00,
2013-07-25 05:38:00,56.7,48.8,30.01,South,180,3.3,3.5,75,0.00,,OVC,0.00,WeatherDisplay:10.37,2013-07-25 10:38:00,
2013-07-25 05:43:00,56.5,48.6,30.01,SSE,158,6.2,6.2,75,0.00,,OVC,0.00,WeatherDisplay:10.37,2013-07-25 10:43:00,
2013-07-25 05:48:00,56.5,48.6,30.01,SSE,158,5.2,5.2,75,0.00,,OVC,0.00,WeatherDisplay:10.37,2013-07-25 10:48:00,
2013-07-25 05:53:00,56.5,48.6,30.01,SSE,158,4.7,5.8,75,0.00,,OVC,0.00,WeatherDisplay:10.37,2013-07-25 10:53:00,
2013-07-25 05:58:00,56.3,48.5,30.01,SSE,158,4.5,5.8,75,0.00,,OVC,0.00,WeatherDisplay:10.37,2013-07-25 10:58:00,
2013-07-25 06:03:00,56.3,48.1,30.00,SSE,158,6.2,6.2,74,0.00,,OVC,0.00,WeatherDisplay:10.37,2013-07-25 11:03:00,
2013-07-25 06:08:00,56.3,47.8,30.00,SSE,158,5.4,5.8,73,0.00,,OVC,0.00,WeatherDisplay:10.37,2013-07-25 11:08:00,
2013-07-25 06:13:00,56.3,47.8,30.00,SSE,158,5.4,5.8,73,0.00,,OVC,0.00,WeatherDisplay:10.37,2013-07-25 11:13:00,
2013-07-25 06:18:00,56.5,47.9,30.01,SSE,158,4.7,4.7,73,0.00,,OVC,0.00,WeatherDisplay:10.37,2013-07-25 11:18:00,
2013-07-25 06:23:00,56.5,47.9,30.00,SSE,158,4.7,4.7,73,0.00,,OVC,0.00,WeatherDisplay:10.37,2013-07-25 11:23:00,
2013-07-25 06:28:00,56.7,48.1,30.00,SSE,158,4.7,4.7,73,0.00,,OVC,0.00,WeatherDisplay:10.37,2013-07-25 11:28:00,
2013-07-25 06:33:00,56.7,47.7,30.00,SSE,158,4.0,4.6,72,0.00,,OVC,0.00,WeatherDisplay:10.37,2013-07-25 11:33:00,
2013-07-25 06:38:00,56.8,47.9,30.00,SE,135,4.3,4.6,72,0.00,,OVC,0.00,WeatherDisplay:10.37,2013-07-25 11:38:00,
2013-07-25 06:43:00,57.2,48.3,30.01,South,180,1.6,2.3,72,0.00,,OVC,0.00,WeatherDisplay:10.37,2013-07-25 11:43:00,
2013-07-25 06:48:00,57.4,48.4,30.01,SSW,202,1.4,1.4,72,0.00,,OVC,0.00,WeatherDisplay:10.37,2013-07-25 11:48:00,
2013-07-25 06:53:00,57.9,48.2,30.00,SSE,158,4.9,4.9,70,0.00,,OVC,0.00,WeatherDisplay:10.37,2013-07-25 11:53:00,
2013-07-25 06:58:00,58.1,48.4,30.00,SSE,158,3.3,3.5,70,0.00,,OVC,0.00,WeatherDisplay:10.37,2013-07-25 11:58:00,
2013-07-25 07:03:00,58.5,49.1,30.01,South,180,2.6,3.5,71,0.00,,OVC,0.00,WeatherDisplay:10.37,2013-07-25 12:03:00,
2013-07-25 07:08:00,58.6,50.0,30.01,SSE,158,1.8,2.3,73,0.00,,OVC,0.00,WeatherDisplay:10.37,2013-07-25 12:08:00,
2013-07-25 07:13:00,58.8,50.2,30.02,SSE,158,1.2,3.5,73,0.00,,OVC,0.00,WeatherDisplay:10.37,2013-07-25 12:13:00,
2013-07-25 07:18:00,59.2,50.5,30.02,SSE,158,3.1,3.1,73,0.00,,OVC,0.00,WeatherDisplay:10.37,2013-07-25 12:18:00,
2013-07-25 07:23:00,59.5,51.2,30.02,South,180,2.2,2.3,74,0.00,,OVC,0.00,WeatherDisplay:10.37,2013-07-25 12:23:00,
2013-07-25 07:28:00,59.9,52.3,30.02,SSE,158,4.0,4.0,76,0.00,,OVC,0.00,WeatherDisplay:10.37,2013-07-25 12:28:00,
2013-07-25 07:33:00,60.3,53.0,30.02,South,180,2.9,2.9,77,0.00,,OVC,0.00,WeatherDisplay:10.37,2013-07-25 12:33:00,
2013-07-25 07:39:00,60.8,53.5,30.02,SSE,158,3.1,3.1,77,0.00,,OVC,0.00,WeatherDisplay:10.37,2013-07-25 12:39:00,
2013-07-25 07:44:00,61.2,53.9,30.02,SSW,202,4.0,4.0,77,0.00,,OVC,0.00,WeatherDisplay:10.37,2013-07-25 12:44:00,
2013-07-25 07:49:00,61.7,54.8,30.02,SSW,202,3.3,3.5,78,0.00,,OVC,0.00,WeatherDisplay:10.37,2013-07-25 12:49:00,
2013-07-25 07:54:00,62.2,55.3,30.02,SSW,202,3.3,3.3,78,0.00,,OVC,0.00,WeatherDisplay:10.37,2013-07-25 12:54:00,
2013-07-25 07:59:00,62.6,56.0,30.02,South,180,4.9,4.9,79,0.00,,OVC,0.00,WeatherDisplay:10.37,2013-07-25 12:59:00,
2013-07-25 08:04:00,63.0,56.3,30.02,South,180,3.3,4.6,79,0.00,,OVC,0.00,WeatherDisplay:10.37,2013-07-25 13:04:00,
2013-07-25 08:09:00,63.3,57.0,30.03,SSW,202,3.3,5.8,80,0.00,,OVC,0.00,WeatherDisplay:10.37,2013-07-25 13:09:00,
2013-07-25 08:14:00,63.7,57.4,30.02,SSW,202,2.4,3.5,80,0.00,,OVC,0.00,WeatherDisplay:10.37,2013-07-25 13:14:00,
2013-07-25 08:19:00,63.9,57.6,30.02,SW,225,1.2,4.6,80,0.00,,OVC,0.00,WeatherDisplay:10.37,2013-07-25 13:19:00,
2013-07-25 08:24:00,64.2,58.3,30.02,SSW,202,3.1,4.6,81,0.00,,OVC,0.00,WeatherDisplay:10.37,2013-07-25 13:24:00,
2013-07-25 08:29:00,64.6,58.6,30.03,SSW,202,2.4,3.5,81,0.00,,OVC,0.00,WeatherDisplay:10.37,2013-07-25 13:29:00,
2013-07-25 08:34:00,64.8,58.8,30.03,West,270,4.0,4.6,81,0.00,,OVC,0.00,WeatherDisplay:10.37,2013-07-25 13:34:00,
2013-07-25 08:39:00,65.1,59.1,30.03,WSW,248,2.6,4.6,81,0.00,,OVC,0.00,WeatherDisplay:10.37,2013-07-25 13:39:00,
2013-07-25 08:44:00,65.5,59.5,30.02,SSW,202,4.0,4.6,81,0.00,,OVC,0.00,WeatherDisplay:10.37,2013-07-25 13:44:00,
2013-07-25 08:49:00,65.8,59.8,30.02,SW,225,2.0,4.6,81,0.00,,OVC,0.00,WeatherDisplay:10.37,2013-07-25 13:49:00,
2013-07-25 08:54:00,66.2,60.2,30.02,SW,225,0.9,4.6,81,0.00,,OVC,0.00,WeatherDisplay:10.37,2013-07-25 13:54:00,
2013-07-25 08:59:00,66.6,60.5,30.02,SSW,202,1.8,2.3,81,0.00,,OVC,0.00,WeatherDisplay:10.37,2013-07-25 13:59:00,
2013-07-25 09:04:00,67.1,60.7,30.02,SW,225,2.4,4.6,80,0.00,,OVC,0.00,WeatherDisplay:10.37,2013-07-25 14:04:00,
2013-07-25 09:09:00,67.5,61.1,30.02,SSW,202,1.2,1.2,80,0.00,,OVC,0.00,WeatherDisplay:10.37,2013-07-25 14:09:00,
2013-07-25 09:14:00,68.0,61.6,30.02,SW,225,3.3,5.8,80,0.00,,OVC,0.00,WeatherDisplay:10.37,2013-07-25 14:14:00,
2013-07-25 09:19:00,68.0,61.6,30.02,SSW,202,1.8,2.3,80,0.00,,OVC,0.00,WeatherDisplay:10.37,2013-07-25 14:19:00,
2013-07-25 09:24:00,68.5,62.1,30.02,SSW,202,4.9,4.9,80,0.00,,OVC,0.00,WeatherDisplay:10.37,2013-07-25 14:24:00,
2013-07-25 09:29:00,69.1,62.6,30.02,SW,225,2.9,3.5,80,0.00,,OVC,0.00,WeatherDisplay:10.37,2013-07-25 14:29:00,
2013-07-25 09:34:00,69.6,62.8,30.02,SW,225,2.6,2.6,79,0.00,,OVC,0.00,WeatherDisplay:10.37,2013-07-25 14:34:00,
2013-07-25 09:39:00,69.8,62.6,30.02,SSW,202,2.9,2.9,78,0.00,,OVC,0.00,WeatherDisplay:10.37,2013-07-25 14:39:00,
2013-07-25 09:44:00,70.2,63.0,30.02,SW,225,6.0,6.0,78,0.00,,OVC,0.00,WeatherDisplay:10.37,2013-07-25 14:44:00,
2013-07-25 09:49:00,70.5,63.3,30.02,SSW,202,3.6,4.6,78,0.00,,OVC,0.00,WeatherDisplay:10.37,2013-07-25 14:49:00,
2013-07-25 09:54:00,71.4,63.5,30.02,SSE,158,5.4,5.8,76,0.00,,OVC,0.00,WeatherDisplay:10.37,2013-07-25 14:54:00,
2013-07-25 09:59:00,72.0,64.0,30.02,SW,225,8.5,8.5,76,0.00,,OVC,0.00,WeatherDisplay:10.37,2013-07-25 14:59:00,
2013-07-25 10:04:00,72.5,64.5,30.02,WSW,248,1.6,8.1,76,0.00,,OVC,0.00,WeatherDisplay:10.37,2013-07-25 15:04:00,
2013-07-25 10:09:00,73.0,64.6,30.02,SW,225,7.1,7.1,75,0.00,,OVC,0.00,WeatherDisplay:10.37,2013-07-25 15:09:00,
2013-07-25 10:14:00,73.4,65.0,30.02,SW,225,1.6,4.6,75,0.00,,OVC,0.00,WeatherDisplay:10.37,2013-07-25 15:14:00,
2013-07-25 10:19:00,73.9,64.7,30.02,WSW,248,3.3,4.6,73,0.00,,OVC,0.00,WeatherDisplay:10.37,2013-07-25 15:19:00,
2013-07-25 10:24:00,74.5,65.3,30.02,SW,225,6.9,6.9,73,0.00,,OVC,0.00,WeatherDisplay:10.37,2013-07-25 15:24:00,
2013-07-25 10:29:00,74.5,64.9,30.02,SW,225,2.4,5.8,72,0.00,,OVC,0.00,WeatherDisplay:10.37,2013-07-25 15:29:00,
2013-07-25 10:34:00,74.8,65.2,30.02,SSW,202,4.7,4.7,72,0.00,,OVC,0.00,WeatherDisplay:10.37,2013-07-25 15:34:00,
2013-07-25 10:39:00,75.4,65.3,30.02,SW,225,4.0,4.6,71,0.00,,OVC,0.00,WeatherDisplay:10.37,2013-07-25 15:39:00,
2013-07-25 10:44:00,75.9,65.8,30.02,SSW,202,5.6,5.8,71,0.00,,OVC,0.00,WeatherDisplay:10.37,2013-07-25 15:44:00,
2013-07-25 10:49:00,76.1,65.6,30.02,SW,225,5.2,5.2,70,0.00,,OVC,0.00,WeatherDisplay:10.37,2013-07-25 15:49:00,
2013-07-25 10:54:00,76.5,65.9,30.02,SSW,202,3.3,9.2,70,0.00,,OVC,0.00,WeatherDisplay:10.37,2013-07-25 15:54:00,
2013-07-25 10:59:00,76.6,65.3,30.02,West,270,4.3,6.9,68,0.00,,OVC,0.00,WeatherDisplay:10.37,2013-07-25 15:59:00,
2013-07-25 11:04:00,76.6,65.7,30.02,SW,225,6.7,6.7,69,0.00,,OVC,0.00,WeatherDisplay:10.37,2013-07-25 16:04:00,
2013-07-25 11:09:00,77.0,66.5,30.02,West,270,8.1,8.1,70,0.00,,OVC,0.00,WeatherDisplay:10.37,2013-07-25 16:09:00,
2013-07-25 11:14:00,77.4,66.0,30.03,West,270,6.7,6.7,68,0.00,,OVC,0.00,WeatherDisplay:10.37,2013-07-25 16:14:00,
2013-07-25 11:19:00,77.4,66.0,30.02,SW,225,2.4,8.1,68,0.00,,OVC,0.00,WeatherDisplay:10.37,2013-07-25 16:19:00,
2013-07-25 11:24:00,77.7,65.9,30.02,SW,225,2.6,6.9,67,0.00,,OVC,0.00,WeatherDisplay:10.37,2013-07-25 16:24:00,
2013-07-25 11:29:00,77.7,65.9,30.02,WSW,248,6.0,8.1,67,0.00,,OVC,0.00,WeatherDisplay:10.37,2013-07-25 16:29:00,
2013-07-25 11:34:00,78.1,66.2,30.02,SW,225,1.8,4.6,67,0.00,,OVC,0.00,WeatherDisplay:10.37,2013-07-25 16:34:00,
2013-07-25 11:39:00,78.3,66.0,30.02,SW,225,4.0,8.1,66,0.00,,OVC,0.00,WeatherDisplay:10.37,2013-07-25 16:39:00,
2013-07-25 11:44:00,78.3,66.4,30.02,WSW,248,4.3,5.8,67,0.00,,OVC,0.00,WeatherDisplay:10.37,2013-07-25 16:44:00,
2013-07-25 11:49:00,78.6,66.3,30.02,WSW,248,5.2,5.2,66,0.00,,OVC,0.00,WeatherDisplay:10.37,2013-07-25 16:49:00,
2013-07-25 11:54:00,78.8,66.5,30.02,West,270,2.9,4.6,66,0.00,,OVC,0.00,WeatherDisplay:10.37,2013-07-25 16:54:00,
2013-07-25 11:59:00,79.0,67.1,30.02,SW,225,3.1,3.5,67,0.00,,OVC,0.00,WeatherDisplay:10.37,2013-07-25 16:59:00,
2013-07-25 12:04:00,79.2,66.8,30.02,West,270,8.7,8.7,66,0.00,,OVC,0.00,WeatherDisplay:10.37,2013-07-25 17:04:00,
2013-07-25 12:09:00,79.5,66.7,30.02,West,270,4.7,11.5,65,0.00,,OVC,0.00,WeatherDisplay:10.37,2013-07-25 17:09:00,
2013-07-25 12:14:00,79.5,66.7,30.02,West,270,9.0,9.0,65,0.00,,OVC,0.00,WeatherDisplay:10.37,2013-07-25 17:14:00,
2013-07-25 12:19:00,79.5,66.3,30.02,SSW,202,6.4,8.1,64,0.00,,OVC,0.00,WeatherDisplay:10.37,2013-07-25 17:19:00,
2013-07-25 12:24:00,79.5,66.3,30.01,SW,225,8.5,8.5,64,0.00,,OVC,0.00,WeatherDisplay:10.37,2013-07-25 17:24:00,
2013-07-25 12:29:00,79.5,65.8,30.01,WSW,248,5.2,6.9,63,0.00,,OVC,0.00,WeatherDisplay:10.37,2013-07-25 17:29:00,
2013-07-25 12:34:00,79.5,66.3,30.01,SW,225,4.9,6.9,64,0.00,,OVC,0.00,WeatherDisplay:10.37,2013-07-25 17:34:00,
2013-07-25 12:39:00,79.9,66.2,30.01,SW,225,6.0,8.1,63,0.00,,OVC,0.00,WeatherDisplay:10.37,2013-07-25 17:39:00,
2013-07-25 12:44:00,80.1,66.3,30.01,WSW,248,6.7,9.2,63,0.00,,OVC,0.00,WeatherDisplay:10.37,2013-07-25 17:44:00,
2013-07-25 12:49:00,80.2,66.5,30.01,SW,225,5.4,6.9,63,0.00,,OVC,0.00,WeatherDisplay:10.37,2013-07-25 17:49:00,
2013-07-25 12:54:00,80.1,66.3,30.01,SSW,202,4.3,4.6,63,0.00,,OVC,0.00,WeatherDisplay:10.37,2013-07-25 17:54:00,
2013-07-25 12:59:00,80.2,66.5,30.01,WSW,248,5.9,8.1,63,0.00,,OVC,0.00,WeatherDisplay:10.37,2013-07-25 17:59:00,
2013-07-25 13:04:00,80.2,65.1,30.01,West,270,8.5,11.5,60,0.00,,OVC,0.00,WeatherDisplay:10.37,2013-07-25 18:04:00,
2013-07-25 13:09:00,80.4,65.7,30.01,SW,225,4.3,6.9,61,0.00,,OVC,0.00,WeatherDisplay:10.37,2013-07-25 18:09:00,
2013-07-25 13:14:00,80.2,66.0,30.00,WSW,248,8.1,8.1,62,0.00,,OVC,0.00,WeatherDisplay:10.37,2013-07-25 18:14:00,
2013-07-25 13:19:00,80.2,65.6,30.00,SW,225,6.2,8.1,61,0.00,,OVC,0.00,WeatherDisplay:10.37,2013-07-25 18:19:00,
2013-07-25 13:24:00,80.4,64.8,30.00,WSW,248,8.1,8.1,59,0.00,,OVC,0.00,WeatherDisplay:10.37,2013-07-25 18:24:00,
2013-07-25 13:29:00,80.8,65.6,30.00,West,270,3.8,5.8,60,0.00,,OVC,0.00,WeatherDisplay:10.37,2013-07-25 18:29:00,
2013-07-25 13:34:00,81.0,66.2,29.99,SSW,202,4.5,8.1,61,0.00,,OVC,0.00,WeatherDisplay:10.37,2013-07-25 18:34:00,
2013-07-25 13:40:00,81.0,65.8,29.99,WSW,248,4.9,9.2,60,0.00,,OVC,0.00,WeatherDisplay:10.37,2013-07-25 18:40:00,
2013-07-25 13:45:00,80.8,65.1,29.99,WSW,248,5.4,5.8,59,0.00,,OVC,0.00,WeatherDisplay:10.37,2013-07-25 18:45:00,
2013-07-25 13:50:00,80.6,65.4,29.98,SSW,202,3.3,4.6,60,0.00,,OVC,0.00,WeatherDisplay:10.37,2013-07-25 18:50:00,
2013-07-25 13:55:00,80.4,65.3,29.98,SSW,202,4.0,5.8,60,0.00,,OVC,0.00,WeatherDisplay:10.37,2013-07-25 18:55:00,
2013-07-25 14:00:00,80.2,65.1,29.97,SSW,202,3.3,8.1,60,0.00,,OVC,0.00,WeatherDisplay:10.37,2013-07-25 19:00:00,
2013-07-25 14:05:00,80.2,64.6,29.97,SSW,202,6.4,6.9,59,0.00,,OVC,0.00,WeatherDisplay:10.37,2013-07-25 19:05:00,
2013-07-25 14:10:00,80.2,65.6,29.97,SSE,158,3.8,5.8,61,0.00,,OVC,0.00,WeatherDisplay:10.37,2013-07-25 19:10:00,
2013-07-25 14:15:00,80.8,65.6,29.97,SSW,202,6.9,9.2,60,0.00,,OVC,0.00,WeatherDisplay:10.37,2013-07-25 19:15:00,
2013-07-25 14:20:00,81.1,65.9,29.97,SW,225,4.7,8.1,60,0.00,,OVC,0.00,WeatherDisplay:10.37,2013-07-25 19:20:00,
2013-07-25 14:25:00,81.9,65.6,29.96,South,180,6.0,9.2,58,0.00,,OVC,0.00,WeatherDisplay:10.37,2013-07-25 19:25:00,
2013-07-25 14:30:00,82.0,65.3,29.96,SW,225,4.5,13.8,57,0.00,,OVC,0.00,WeatherDisplay:10.37,2013-07-25 19:30:00,
2013-07-25 14:35:00,81.5,64.8,29.96,SW,225,5.4,8.1,57,0.00,,OVC,0.00,WeatherDisplay:10.37,2013-07-25 19:35:00,
2013-07-25 14:40:00,81.3,64.6,29.96,SSW,202,8.1,8.1,57,0.00,,OVC,0.00,WeatherDisplay:10.37,2013-07-25 19:40:00,
2013-07-25 14:45:00,81.3,65.6,29.96,SW,225,4.0,5.8,59,0.00,,OVC,0.00,WeatherDisplay:10.37,2013-07-25 19:45:00,
2013-07-25 14:50:00,81.7,65.5,29.95,SSW,202,7.1,7.1,58,0.00,,OVC,0.00,WeatherDisplay:10.37,2013-07-25 19:50:00,
2013-07-25 14:55:00,82.0,65.3,29.95,South,180,7.8,8.1,57,0.00,,OVC,0.00,WeatherDisplay:10.37,2013-07-25 19:55:00,
2013-07-25 15:00:00,82.4,65.1,29.95,SSW,202,4.7,8.1,56,0.00,,OVC,0.00,WeatherDisplay:10.37,2013-07-25 20:00:00,
2013-07-25 15:05:00,82.4,64.6,29.95,South,180,9.0,9.2,55,0.00,,OVC,0.00,WeatherDisplay:10.37,2013-07-25 20:05:00,
2013-07-25 15:10:00,82.6,64.8,29.95,SSW,202,5.4,8.1,55,0.00,,OVC,0.00,WeatherDisplay:10.37,2013-07-25 20:10:00,
2013-07-25 15:15:00,82.8,65.5,29.95,WSW,248,11.2,11.5,56,0.00,,OVC,0.00,WeatherDisplay:10.37,2013-07-25 20:15:00,
2013-07-25 15:20:00,82.6,64.8,29.95,SW,225,5.2,6.9,55,0.00,,OVC,0.00,WeatherDisplay:10.37,2013-07-25 20:20:00,
2013-07-25 15:25:00,82.4,64.1,29.95,SSW,202,5.4,8.1,54,0.00,,OVC,0.00,WeatherDisplay:10.37,2013-07-25 20:25:00,
2013-07-25 15:30:00,82.6,64.3,29.96,WSW,248,7.8,8.1,54,0.00,,OVC,0.00,WeatherDisplay:10.37,2013-07-25 20:30:00,
2013-07-25 15:35:00,82.8,64.4,29.96,SW,225,10.5,10.5,54,0.00,,OVC,0.00,WeatherDisplay:10.37,2013-07-25 20:35:00,
2013-07-25 15:40:00,82.4,64.6,29.96,SW,225,5.9,8.1,55,0.00,,OVC,0.00,WeatherDisplay:10.37,2013-07-25 20:40:00,
2013-07-25 15:45:00,82.4,64.6,29.95,SSW,202,3.6,6.9,55,0.00,,OVC,0.00,WeatherDisplay:10.37,2013-07-25 20:45:00,
2013-07-25 15:50:00,82.6,64.8,29.95,SW,225,8.1,8.1,55,0.00,,OVC,0.00,WeatherDisplay:10.37,2013-07-25 20:50:00,
2013-07-25 15:55:00,82.4,64.1,29.96,SSW,202,11.4,11.5,54,0.00,,OVC,0.00,WeatherDisplay:10.37,2013-07-25 20:55:00,
2013-07-25 16:00:00,82.4,64.6,29.96,SSW,202,9.2,11.5,55,0.00,,OVC,0.00,WeatherDisplay:10.37,2013-07-25 21:00:00,
2013-07-25 16:05:00,82.4,65.1,29.96,SSW,202,9.4,9.4,56,0.00,,OVC,0.00,WeatherDisplay:10.37,2013-07-25 21:05:00,
2013-07-25 16:10:00,82.8,65.5,29.96,SW,225,4.7,10.4,56,0.00,,OVC,0.00,WeatherDisplay:10.37,2013-07-25 21:10:00,
2013-07-25 16:15:00,82.6,64.3,29.96,SW,225,11.4,11.4,54,0.00,,OVC,0.00,WeatherDisplay:10.37,2013-07-25 21:15:00,
2013-07-25 16:20:00,82.4,65.1,29.96,South,180,6.2,8.1,56,0.00,,OVC,0.00,WeatherDisplay:10.37,2013-07-25 21:20:00,
2013-07-25 16:25:00,82.0,64.8,29.96,SW,225,8.1,8.1,56,0.00,,OVC,0.00,WeatherDisplay:10.37,2013-07-25 21:25:00,
2013-07-25 16:30:00,81.7,64.5,29.96,South,180,6.4,6.9,56,0.00,,OVC,0.00,WeatherDisplay:10.37,2013-07-25 21:30:00,
2013-07-25 16:35:00,81.3,64.1,29.96,SSW,202,3.3,9.2,56,0.00,,OVC,0.00,WeatherDisplay:10.37,2013-07-25 21:35:00,
2013-07-25 16:40:00,81.3,64.6,29.95,WSW,248,4.5,9.2,57,0.00,,OVC,0.00,WeatherDisplay:10.37,2013-07-25 21:40:00,
2013-07-25 16:45:00,81.3,64.1,29.95,South,180,2.0,6.9,56,0.00,,OVC,0.00,WeatherDisplay:10.37,2013-07-25 21:45:00,
2013-07-25 16:50:00,81.1,64.5,29.95,West,270,7.4,7.4,57,0.00,,OVC,0.00,WeatherDisplay:10.37,2013-07-25 21:50:00,
2013-07-25 16:55:00,81.1,64.5,29.96,SSW,202,4.7,4.7,57,0.00,,OVC,0.00,WeatherDisplay:10.37,2013-07-25 21:55:00,
2013-07-25 17:00:00,81.1,64.5,29.96,SE,135,6.9,6.9,57,0.00,,OVC,0.00,WeatherDisplay:10.37,2013-07-25 22:00:00,
2013-07-25 17:05:00,80.8,64.6,29.96,SSW,202,3.3,5.8,58,0.00,,OVC,0.00,WeatherDisplay:10.37,2013-07-25 22:05:00,
2013-07-25 17:10:00,80.6,64.9,29.96,SW,225,7.6,7.6,59,0.00,,OVC,0.00,WeatherDisplay:10.37,2013-07-25 22:10:00,
2013-07-25 17:15:00,80.4,64.8,29.96,SSW,202,5.4,8.1,59,0.00,,OVC,0.00,WeatherDisplay:10.37,2013-07-25 22:15:00,
2013-07-25 17:20:00,80.2,64.6,29.96,South,180,7.8,7.8,59,0.00,,OVC,0.00,WeatherDisplay:10.37,2013-07-25 22:20:00,
2013-07-25 17:25:00,79.9,64.3,29.96,SSW,202,5.4,5.4,59,0.00,,OVC,0.00,WeatherDisplay:10.37,2013-07-25 22:25:00,
2013-07-25 17:30:00,79.9,64.3,29.96,SSW,202,8.7,8.7,59,0.00,,OVC,0.00,WeatherDisplay:10.37,2013-07-25 22:30:00,
2013-07-25 17:35:00,79.7,63.6,29.96,SW,225,5.6,5.6,58,0.00,,OVC,0.00,WeatherDisplay:10.37,2013-07-25 22:35:00,
2013-07-25 17:40:00,79.5,63.9,29.96,SW,225,3.3,5.8,59,0.00,,OVC,0.00,WeatherDisplay:10.37,2013-07-25 22:40:00,
2013-07-25 17:45:00,79.3,64.2,29.97,NNW,338,1.6,2.3,60,0.00,,OVC,0.00,WeatherDisplay:10.37,2013-07-25 22:45:00,
2013-07-25 17:50:00,76.8,59.4,29.98,NNE,22,24.8,24.8,55,0.00,,OVC,0.00,WeatherDisplay:10.37,2013-07-25 22:50:00,
2013-07-25 17:55:00,74.3,59.0,29.98,NNE,22,5.4,8.1,59,0.00,,OVC,0.00,WeatherDisplay:10.37,2013-07-25 22:55:00,
2013-07-25 18:00:00,72.5,58.7,29.98,NNE,22,4.7,6.9,62,0.00,,OVC,0.00,WeatherDisplay:10.37,2013-07-25 23:00:00,
2013-07-25 18:05:00,71.2,58.9,29.98,NNE,22,10.5,10.5,65,0.00,,OVC,0.00,WeatherDisplay:10.37,2013-07-25 23:05:00,
2013-07-25 18:10:00,70.2,58.7,29.98,NNE,22,8.1,10.4,67,0.00,,OVC,0.00,WeatherDisplay:10.37,2013-07-25 23:10:00,
2013-07-25 18:15:00,69.4,59.2,29.97,North,0,6.0,9.2,70,0.00,,OVC,0.00,WeatherDisplay:10.37,2013-07-25 23:15:00,
2013-07-25 18:20:00,69.1,59.3,29.97,NNE,22,5.4,9.2,71,0.00,,OVC,0.00,WeatherDisplay:10.37,2013-07-25 23:20:00,
2013-07-25 18:25:00,68.7,59.7,29.98,NNE,22,7.1,8.1,73,0.00,,OVC,0.00,WeatherDisplay:10.37,2013-07-25 23:25:00,
2013-07-25 18:30:00,68.4,59.7,29.97,North,0,6.9,6.9,74,0.00,,OVC,0.00,WeatherDisplay:10.37,2013-07-25 23:30:00,
2013-07-25 18:35:00,67.8,59.6,29.97,NNE,22,8.3,10.4,75,0.00,,OVC,0.00,WeatherDisplay:10.37,2013-07-25 23:35:00,
2013-07-25 18:40:00,67.5,60.0,29.97,NNE,22,4.7,5.8,77,0.00,,OVC,0.00,WeatherDisplay:10.37,2013-07-25 23:40:00,
2013-07-25 18:45:00,66.7,59.7,29.96,NE,45,5.4,6.9,78,0.00,,OVC,0.00,WeatherDisplay:10.37,2013-07-25 23:45:00,
2013-07-25 18:50:00,66.0,59.7,29.97,NE,45,6.2,6.2,80,0.00,,OVC,0.01,WeatherDisplay:10.37,2013-07-25 23:50:00,
2013-07-25 18:55:00,65.5,59.1,29.97,NNE,22,10.2,11.5,80,0.01,RA,OVC,0.01,WeatherDisplay:10.37,2013-07-25 23:55:00,
2013-07-25 19:00:00,65.1,58.8,29.98,NNE,22,5.6,5.8,80,0.01,RA,OVC,0.01,WeatherDisplay:10.37,2013-07-26 00:00:00,
2013-07-25 19:05:00,64.8,58.4,29.98,NNE,22,2.2,4.6,80,0.02,RA,OVC,0.02,WeatherDisplay:10.37,2013-07-26 00:05:00,
2013-07-25 19:10:00,64.8,58.4,29.98,NE,45,2.9,3.5,80,0.02,RA,OVC,0.02,WeatherDisplay:10.37,2013-07-26 00:10:00,
2013-07-25 19:15:00,64.6,58.3,29.98,NE,45,3.1,4.6,80,0.03,RA,OVC,0.03,WeatherDisplay:10.37,2013-07-26 00:15:00,
2013-07-25 19:20:00,64.4,57.7,29.99,ENE,68,2.6,2.6,79,0.05,RA,OVC,0.05,WeatherDisplay:10.37,2013-07-26 00:20:00,
2013-07-25 19:26:00,64.2,56.9,29.99,NNE,22,4.9,4.9,77,0.06,RA,OVC,0.06,WeatherDisplay:10.37,2013-07-26 00:26:00,
2013-07-25 19:31:00,64.0,56.7,29.99,ENE,68,3.3,4.6,77,0.07,RA,OVC,0.07,WeatherDisplay:10.37,2013-07-26 00:31:00,
2013-07-25 19:36:00,64.0,56.3,30.00,ESE,112,0.5,3.5,76,0.08,RA,OVC,0.08,WeatherDisplay:10.37,2013-07-26 00:36:00,
2013-07-25 19:41:00,63.9,56.5,29.99,NE,45,5.4,5.8,77,0.09,RA,OVC,0.09,WeatherDisplay:10.37,2013-07-26 00:41:00,
2013-07-25 19:46:00,63.9,55.8,29.99,ESE,112,4.3,4.6,75,0.10,RA,OVC,0.10,WeatherDisplay:10.37,2013-07-26 00:46:00,
2013-07-25 19:51:00,63.9,55.4,29.98,ESE,112,3.6,4.6,74,0.10,RA,OVC,0.11,WeatherDisplay:10.37,2013-07-26 00:51:00,
2013-07-25 19:56:00,63.7,55.2,29.97,SE,135,6.9,6.9,74,0.11,RA,OVC,0.12,WeatherDisplay:10.37,2013-07-26 00:56:00,
2013-07-25 20:01:00,63.9,55.4,29.97,SE,135,15.0,15.0,74,0.12,RA,OVC,0.13,WeatherDisplay:10.37,2013-07-26 01:01:00,
2013-07-25 20:06:00,63.7,54.5,29.96,ESE,112,20.1,20.7,72,0.12,RA,OVC,0.14,WeatherDisplay:10.37,2013-07-26 01:06:00,
2013-07-25 20:11:00,63.7,54.1,29.96,SSE,158,22.1,24.2,71,0.13,RA,OVC,0.15,WeatherDisplay:10.37,2013-07-26 01:11:00,
2013-07-25 20:16:00,63.7,54.1,29.96,SSE,158,20.1,23.0,71,0.12,RA,OVC,0.15,WeatherDisplay:10.37,2013-07-26 01:16:00,
2013-07-25 20:21:00,63.5,53.9,29.95,SE,135,17.9,23.0,71,0.11,RA,OVC,0.17,WeatherDisplay:10.37,2013-07-26 01:21:00,
2013-07-25 20:26:00,63.7,54.1,29.96,SSE,158,21.0,21.0,71,0.10,RA,OVC,0.17,WeatherDisplay:10.37,2013-07-26 01:26:00,
2013-07-25 20:31:00,63.7,54.5,29.95,SE,135,17.9,23.0,72,0.11,RA,OVC,0.19,WeatherDisplay:10.37,2013-07-26 01:31:00,
2013-07-25 20:36:00,63.7,53.7,29.94,SE,135,16.8,17.3,70,0.10,RA,OVC,0.19,WeatherDisplay:10.37,2013-07-26 01:36:00,
2013-07-25 20:41:00,64.4,54.4,29.93,SSE,158,21.9,24.2,70,0.10,RA,OVC,0.19,WeatherDisplay:10.37,2013-07-26 01:41:00,
2013-07-25 20:46:00,64.9,55.3,29.92,SSE,158,27.0,27.6,71,0.10,RA,OVC,0.20,WeatherDisplay:10.37,2013-07-26 01:46:00,
2013-07-25 20:51:00,65.3,58.3,29.92,SSE,158,26.3,26.5,78,0.09,RA,OVC,0.20,WeatherDisplay:10.37,2013-07-26 01:51:00,
2013-07-25 20:56:00,65.5,58.1,29.92,SE,135,21.3,24.2,77,0.09,RA,OVC,0.22,WeatherDisplay:10.37,2013-07-26 01:56:00,
2013-07-25 21:01:00,65.3,58.3,29.91,South,180,18.5,20.7,78,0.09,RA,OVC,0.22,WeatherDisplay:10.37,2013-07-26 02:01:00,
2013-07-25 21:06:00,65.3,57.2,29.92,SE,135,15.6,18.4,75,0.08,RA,OVC,0.22,WeatherDisplay:10.37,2013-07-26 02:06:00,
2013-07-25 21:11:00,65.5,58.8,29.93,ESE,112,16.3,16.3,79,0.07,,OVC,0.22,WeatherDisplay:10.37,2013-07-26 02:11:00,
2013-07-25 21:16:00,65.7,59.3,29.94,SSE,158,20.1,20.7,80,0.07,,OVC,0.22,WeatherDisplay:10.37,2013-07-26 02:16:00,
2013-07-25 21:22:00,65.8,59.1,29.94,SSE,158,12.8,15.0,79,0.06,,OVC,0.22,WeatherDisplay:10.37,2013-07-26 02:22:00,
2013-07-25 21:27:00,66.0,59.3,29.95,SSE,158,13.7,16.1,79,0.06,,OVC,0.22,WeatherDisplay:10.37,2013-07-26 02:27:00,
2013-07-25 21:32:00,66.2,58.8,29.96,SSE,158,10.7,15.0,77,0.04,,OVC,0.22,WeatherDisplay:10.37,2013-07-26 02:32:00,
2013-07-25 21:37:00,66.2,58.4,29.96,SE,135,10.5,11.5,76,0.03,,OVC,0.22,WeatherDisplay:10.37,2013-07-26 02:37:00,
2013-07-25 21:42:00,66.2,58.4,29.97,SE,135,12.1,12.1,76,0.03,,OVC,0.22,WeatherDisplay:10.37,2013-07-26 02:42:00,
2013-07-25 21:47:00,66.4,58.9,29.97,SE,135,10.2,12.7,77,0.02,,OVC,0.22,WeatherDisplay:10.37,2013-07-26 02:47:00,
2013-07-25 21:52:00,66.6,58.8,29.98,SSE,158,11.8,12.7,76,0.02,,OVC,0.22,WeatherDisplay:10.37,2013-07-26 02:52:00,
2013-07-25 21:57:00,66.6,58.4,29.99,SSW,202,7.6,9.2,75,0.01,,OVC,0.22,WeatherDisplay:10.37,2013-07-26 02:57:00,
2013-07-25 22:02:00,66.6,58.0,29.99,South,180,3.6,6.9,74,0.00,,OVC,0.22,WeatherDisplay:10.37,2013-07-26 03:02:00,
2013-07-25 22:07:00,66.2,57.3,30.01,SSW,202,2.4,5.8,73,0.02,RA,OVC,0.24,WeatherDisplay:10.37,2013-07-26 03:07:00,
2013-07-25 22:12:00,66.2,56.9,30.00,South,180,3.3,3.5,72,0.03,RA,OVC,0.26,WeatherDisplay:10.37,2013-07-26 03:12:00,
2013-07-25 22:17:00,66.0,56.3,30.01,SSW,202,2.2,4.6,71,0.03,RA,OVC,0.26,WeatherDisplay:10.37,2013-07-26 03:17:00,
2013-07-25 22:22:00,65.8,55.8,30.01,South,180,3.3,4.6,70,0.03,,OVC,0.26,WeatherDisplay:10.37,2013-07-26 03:22:00,
2013-07-25 22:27:00,65.8,55.4,30.01,SSE,158,3.6,5.8,69,0.04,RA,OVC,0.26,WeatherDisplay:10.37,2013-07-26 03:27:00,
2013-07-25 22:32:00,65.7,55.6,30.01,SSE,158,8.5,9.2,70,0.04,RA,OVC,0.26,WeatherDisplay:10.37,2013-07-26 03:32:00,
2013-07-25 22:37:00,65.5,55.8,30.00,SSE,158,9.4,9.4,71,0.06,RA,OVC,0.29,WeatherDisplay:10.37,2013-07-26 03:37:00,
2013-07-25 22:42:00,65.1,55.9,30.00,South,180,11.4,11.5,72,0.07,RA,OVC,0.30,WeatherDisplay:10.37,2013-07-26 03:42:00,
2013-07-25 22:47:00,64.8,56.3,29.99,SSW,202,11.2,11.5,74,0.08,RA,OVC,0.31,WeatherDisplay:10.37,2013-07-26 03:47:00,
2013-07-25 22:52:00,64.4,55.6,29.99,South,180,8.1,10.4,73,0.11,RA,OVC,0.33,WeatherDisplay:10.37,2013-07-26 03:52:00,
2013-07-25 22:57:00,64.2,55.0,29.99,South,180,8.5,10.4,72,0.12,RA,OVC,0.35,WeatherDisplay:10.37,2013-07-26 03:57:00,
2013-07-25 23:01:00,64.2,54.6,29.99,SSE,158,11.2,11.2,71,0.13,RA,OVC,0.36,WeatherDisplay:10.37,2013-07-26 04:01:00,
2013-07-25 23:02:00,64.0,54.4,29.99,SSW,202,14.3,14.3,71,0.13,RA,OVC,0.36,WeatherDisplay:10.37,2013-07-26 04:02:00,
2013-07-25 23:07:00,64.0,54.4,29.99,SSW,202,11.4,11.4,71,0.13,RA,OVC,0.38,WeatherDisplay:10.37,2013-07-26 04:07:00,
2013-07-25 23:12:00,63.9,54.3,29.99,South,180,7.6,10.4,71,0.13,RA,OVC,0.39,WeatherDisplay:10.37,2013-07-26 04:12:00,
2013-07-25 23:17:00,63.7,53.7,29.99,SSE,158,10.2,11.5,70,0.13,RA,OVC,0.39,WeatherDisplay:10.37,2013-07-26 04:17:00,
2013-07-25 23:22:00,63.7,53.7,29.98,South,180,9.9,9.9,70,0.13,,OVC,0.39,WeatherDisplay:10.37,2013-07-26 04:22:00,
2013-07-25 23:27:00,63.7,53.3,29.98,SSE,158,8.5,9.2,69,0.12,,OVC,0.39,WeatherDisplay:10.37,2013-07-26 04:27:00,
2013-07-25 23:32:00,63.7,52.9,29.98,SE,135,11.2,11.2,68,0.12,,OVC,0.39,WeatherDisplay:10.37,2013-07-26 04:32:00,
2013-07-25 23:37:00,63.7,52.5,29.97,SSW,202,6.4,6.4,67,0.11,RA,OVC,0.40,WeatherDisplay:10.37,2013-07-26 04:37:00,
2013-07-25 23:42:00,63.7,52.1,29.97,South,180,8.7,8.7,66,0.10,RA,OVC,0.40,WeatherDisplay:10.37,2013-07-26 04:42:00,
2013-07-25 23:47:00,63.7,52.1,29.97,SSE,158,6.2,8.1,66,0.09,,OVC,0.40,WeatherDisplay:10.37,2013-07-26 04:47:00,
2013-07-25 23:52:00,63.7,51.7,29.97,South,180,6.9,6.9,65,0.07,RA,OVC,0.41,WeatherDisplay:10.37,2013-07-26 04:52:00,
2013-07-25 23:57:00,63.9,51.9,29.97,SSE,158,3.8,6.9,65,0.07,RA,OVC,0.42,WeatherDisplay:10.37,2013-07-26 04:57:00,